createdAt,value
2022-12-20T00:01:26.047Z,19.00
2022-12-20T00:03:54.470Z,19.80
2022-12-20T00:06:22.398Z,20.40
2022-12-20T00:09:00.345Z,19.70
2022-12-20T00:11:28.410Z,19.00
2022-12-20T00:13:55.582Z,18.80
2022-12-20T00:16:25.683Z,18.80
2022-12-20T00:18:54.696Z,19.10
2022-12-20T00:21:21.827Z,19.30
2022-12-20T00:23:48.889Z,19.00
2022-12-20T00:26:18.553Z,19.50
2022-12-20T00:28:45.806Z,19.50
2022-12-20T00:31:14.579Z,18.70
2022-12-20T00:33:45.437Z,19.50
2022-12-20T00:36:12.488Z,19.30
2022-12-20T00:38:39.206Z,19.30
2022-12-20T00:41:07.703Z,19.20
2022-12-20T00:43:37.114Z,19.00
2022-12-20T00:46:04.199Z,18.10
2022-12-20T00:48:32.578Z,18.80
2022-12-20T00:51:11.471Z,18.70
2022-12-20T00:53:38.876Z,18.00
2022-12-20T00:56:06.513Z,18.80
2022-12-20T00:58:37.912Z,18.60
2022-12-20T01:01:06.836Z,18.50
2022-12-20T01:03:33.997Z,17.80
2022-12-20T01:06:02.341Z,17.60
2022-12-20T01:08:31.195Z,17.50
2022-12-20T01:11:17.058Z,17.50
2022-12-20T01:13:47.525Z,17.10
2022-12-20T01:16:19.342Z,17.20
2022-12-20T01:18:46.923Z,18.20
2022-12-20T01:21:15.957Z,18.60
2022-12-20T01:23:43.052Z,19.10
2022-12-20T01:26:16.491Z,17.60
2022-12-20T01:28:45.561Z,16.90
2022-12-20T01:31:15.627Z,18.00
2022-12-20T01:33:43.471Z,17.70
2022-12-20T01:36:28.841Z,18.20
2022-12-20T01:38:57.882Z,18.00
2022-12-20T01:41:25.637Z,17.60
2022-12-20T01:43:57.936Z,17.70
2022-12-20T01:46:27.843Z,19.10
2022-12-20T01:49:10.244Z,19.80
2022-12-20T01:51:44.605Z,24.90
2022-12-20T01:54:18.570Z,24.60
2022-12-20T01:56:50.716Z,27.00
2022-12-20T01:59:18.770Z,25.00
2022-12-20T02:01:45.694Z,23.40
2022-12-20T02:04:12.639Z,21.90
2022-12-20T02:06:39.327Z,21.30
2022-12-20T02:09:08.470Z,20.20
2022-12-20T02:12:03.151Z,20.40
2022-12-20T02:14:42.545Z,19.20
2022-12-20T02:17:15.228Z,21.20
2022-12-20T02:20:05.777Z,20.80
2022-12-20T02:22:41.388Z,19.70
2022-12-20T02:25:20.040Z,19.80
2022-12-20T02:28:04.602Z,20.30
2022-12-20T02:30:39.216Z,19.90
2022-12-20T02:33:12.209Z,19.00
2022-12-20T02:35:40.911Z,19.60
2022-12-20T02:38:47.572Z,20.00
2022-12-20T02:41:31.697Z,20.30
2022-12-20T02:44:23.181Z,19.70
2022-12-20T02:46:51.306Z,19.80
2022-12-20T02:49:22.962Z,20.20
2022-12-20T02:51:52.718Z,19.60
2022-12-20T02:54:19.534Z,20.40
2022-12-20T02:56:56.005Z,20.10
2022-12-20T02:59:30.201Z,20.10
2022-12-20T03:01:56.983Z,20.90
2022-12-20T03:04:27.225Z,21.20
2022-12-20T03:07:03.248Z,21.50
2022-12-20T03:09:32.427Z,21.50
2022-12-20T03:11:59.618Z,24.00
2022-12-20T03:14:27.047Z,24.00
2022-12-20T03:16:55.267Z,24.00
2022-12-20T03:19:22.635Z,26.10
2022-12-20T03:21:49.375Z,26.70
2022-12-20T03:24:16.259Z,27.10
2022-12-20T03:26:43.276Z,26.90
2022-12-20T03:29:10.423Z,27.90
2022-12-20T03:31:37.618Z,28.40
2022-12-20T03:34:06.184Z,28.80
2022-12-20T03:36:34.218Z,28.80
2022-12-20T03:39:02.187Z,28.40
2022-12-20T03:41:31.168Z,29.40
2022-12-20T03:43:59.428Z,30.00
2022-12-20T03:46:27.413Z,30.00
2022-12-20T03:48:54.371Z,30.90
2022-12-20T03:51:21.389Z,31.40
2022-12-20T03:53:48.062Z,31.00
2022-12-20T03:56:15.127Z,31.00
2022-12-20T03:58:42.446Z,31.50
2022-12-20T04:01:19.714Z,31.80
2022-12-20T04:03:47.144Z,32.10
2022-12-20T04:06:14.239Z,32.90
2022-12-20T04:08:41.752Z,33.40
2022-12-20T04:11:17.956Z,33.10
2022-12-20T04:13:55.016Z,31.70
2022-12-20T04:16:25.676Z,33.00
2022-12-20T04:18:52.974Z,33.00
2022-12-20T04:21:28.400Z,32.90
2022-12-20T04:23:57.482Z,33.50
2022-12-20T04:26:25.809Z,32.70
2022-12-20T04:28:52.954Z,33.80
2022-12-20T04:31:23.802Z,32.60
2022-12-20T04:33:52.505Z,32.70
2022-12-20T04:36:19.885Z,32.80
2022-12-20T04:38:48.212Z,32.20
2022-12-20T04:41:21.625Z,33.80
2022-12-20T04:43:55.233Z,34.10
2022-12-20T04:46:23.523Z,33.40
2022-12-20T04:48:59.815Z,34.30
2022-12-20T04:51:27.955Z,32.70
2022-12-20T04:53:55.131Z,32.60
2022-12-20T04:56:30.422Z,34.10
2022-12-20T04:59:02.002Z,33.90
2022-12-20T05:01:28.793Z,32.90
2022-12-20T05:03:55.710Z,34.60
2022-12-20T05:06:22.727Z,34.40
2022-12-20T05:08:50.000Z,33.00
2022-12-20T05:11:16.776Z,33.30
2022-12-20T05:13:43.503Z,32.90
2022-12-20T05:16:10.397Z,33.80
2022-12-20T05:18:39.539Z,32.90
2022-12-20T05:21:28.281Z,33.80
2022-12-20T05:24:13.307Z,33.00
2022-12-20T05:27:09.237Z,36.80
2022-12-20T05:29:35.991Z,40.70
2022-12-20T05:32:02.765Z,42.70
2022-12-20T05:34:30.253Z,40.30
2022-12-20T05:36:56.863Z,35.90
2022-12-20T05:39:25.702Z,33.40
2022-12-20T05:41:54.158Z,34.20
2022-12-20T05:44:22.799Z,33.30
2022-12-20T05:46:51.189Z,33.60
2022-12-20T05:49:21.323Z,33.10
2022-12-20T05:51:48.663Z,33.00
2022-12-20T05:54:22.041Z,34.40
2022-12-20T05:57:11.231Z,33.60
2022-12-20T05:59:40.250Z,33.90
2022-12-20T06:02:12.523Z,33.10
2022-12-20T06:04:40.013Z,32.60
2022-12-20T06:07:14.192Z,32.50
2022-12-20T06:09:41.847Z,31.70
2022-12-20T06:12:13.405Z,31.80
2022-12-20T06:14:40.190Z,32.00
2022-12-20T06:17:07.026Z,30.20
2022-12-20T06:19:34.144Z,29.90
2022-12-20T06:22:00.931Z,30.40
2022-12-20T06:24:35.846Z,30.80
2022-12-20T06:27:03.581Z,30.20
2022-12-20T06:29:30.410Z,30.20
2022-12-20T06:32:05.197Z,30.60
2022-12-20T06:34:32.447Z,29.90
2022-12-20T06:36:59.124Z,29.70
2022-12-20T06:39:29.005Z,31.40
2022-12-20T06:42:02.980Z,30.60
2022-12-20T06:44:29.711Z,31.10
2022-12-20T06:46:56.499Z,30.10
2022-12-20T06:49:23.374Z,31.40
2022-12-20T06:51:50.725Z,31.40
2022-12-20T06:54:21.047Z,31.60
2022-12-20T06:56:47.735Z,31.20
2022-12-20T06:59:15.872Z,32.00
2022-12-20T07:01:42.593Z,30.50
2022-12-20T07:04:09.376Z,31.10
2022-12-20T07:06:36.184Z,30.90
2022-12-20T07:09:03.521Z,30.40
2022-12-20T07:11:30.225Z,30.30
2022-12-20T07:13:57.906Z,32.20
2022-12-20T07:16:24.844Z,31.40
2022-12-20T07:18:53.548Z,30.20
2022-12-20T07:21:21.186Z,28.80
2022-12-20T07:23:47.968Z,30.10
2022-12-20T07:26:15.079Z,29.60
2022-12-20T07:28:42.441Z,30.00
2022-12-20T07:31:09.119Z,30.40
2022-12-20T07:33:36.721Z,31.00
2022-12-20T07:36:10.087Z,30.60
2022-12-20T07:38:36.979Z,30.10
2022-12-20T07:41:08.765Z,31.30
2022-12-20T07:43:35.917Z,30.90
2022-12-20T07:46:04.183Z,29.30
2022-12-20T07:48:30.848Z,29.40
2022-12-20T07:51:21.100Z,29.00
2022-12-20T07:53:59.839Z,29.70
2022-12-20T07:56:28.600Z,29.20
2022-12-20T07:58:58.610Z,29.60
2022-12-20T08:01:27.811Z,29.60
2022-12-20T08:04:00.175Z,29.20
2022-12-20T08:06:27.057Z,28.90
2022-12-20T08:08:57.245Z,28.10
2022-12-20T08:11:24.530Z,29.40
2022-12-20T08:13:57.510Z,30.00
2022-12-20T08:16:25.753Z,30.10
2022-12-20T08:18:52.472Z,29.50
2022-12-20T08:21:19.258Z,28.70
2022-12-20T08:23:46.013Z,28.70
2022-12-20T08:26:12.688Z,28.30
2022-12-20T08:28:39.568Z,28.60
2022-12-20T08:31:08.734Z,28.30
2022-12-20T08:33:37.222Z,28.60
2022-12-20T08:36:07.162Z,29.90
2022-12-20T08:38:34.908Z,29.40
2022-12-20T08:41:06.365Z,30.50
2022-12-20T08:43:33.741Z,33.40
2022-12-20T08:46:00.589Z,33.60
2022-12-20T08:48:27.861Z,32.80
2022-12-20T08:50:59.831Z,31.00
2022-12-20T08:53:28.838Z,31.50
2022-12-20T08:56:23.642Z,32.00
2022-12-20T08:58:50.329Z,30.30
2022-12-20T09:01:19.447Z,30.80
2022-12-20T09:03:47.142Z,31.20
2022-12-20T09:06:19.594Z,31.70
2022-12-20T09:08:47.649Z,30.60
2022-12-20T09:11:17.994Z,30.80
2022-12-20T09:13:47.470Z,32.70
2022-12-20T09:16:16.802Z,31.90
2022-12-20T09:18:43.659Z,31.60
2022-12-20T09:21:10.889Z,35.60
2022-12-20T09:23:38.078Z,42.20
2022-12-20T09:26:12.845Z,40.60
2022-12-20T09:28:40.562Z,36.50
2022-12-20T09:31:11.008Z,32.80
2022-12-20T09:33:38.055Z,30.00
2022-12-20T09:36:05.860Z,28.40
2022-12-20T09:38:33.043Z,28.80
2022-12-20T09:41:03.664Z,28.90
2022-12-20T09:43:31.847Z,27.30
2022-12-20T09:46:01.247Z,28.70
2022-12-20T09:48:39.317Z,29.70
2022-12-20T09:51:29.620Z,31.30
2022-12-20T09:54:44.053Z,33.00
2022-12-20T09:57:25.645Z,29.80
2022-12-20T09:59:55.879Z,31.10
2022-12-20T10:02:55.680Z,33.10
2022-12-20T10:05:25.857Z,36.40
2022-12-20T10:08:02.766Z,41.60
2022-12-20T10:10:49.282Z,43.80
2022-12-20T10:13:34.314Z,45.80
2022-12-20T10:16:33.401Z,39.00
2022-12-20T10:19:06.080Z,36.50
2022-12-20T10:21:48.859Z,34.30
2022-12-20T10:24:22.561Z,32.20
2022-12-20T10:26:50.483Z,31.50
2022-12-20T10:29:18.753Z,31.30
2022-12-20T10:31:45.511Z,32.00
2022-12-20T10:34:12.198Z,32.20
2022-12-20T10:36:38.990Z,30.30
2022-12-20T10:39:08.813Z,31.30
2022-12-20T10:41:44.183Z,33.60
2022-12-20T10:44:22.706Z,33.10
2022-12-20T10:46:54.230Z,34.10
2022-12-20T10:49:27.921Z,33.90
2022-12-20T10:52:00.576Z,36.80
2022-12-20T10:54:39.170Z,39.10
2022-12-20T10:57:18.096Z,37.00
2022-12-20T10:59:55.764Z,32.50
2022-12-20T11:02:39.939Z,30.40
2022-12-20T11:05:10.141Z,31.30
2022-12-20T11:10:45.053Z,31.70
2022-12-20T11:13:25.032Z,32.10
2022-12-20T11:15:56.580Z,33.00
2022-12-20T11:18:55.411Z,34.30
2022-12-20T11:21:38.993Z,40.40
2022-12-20T11:24:30.885Z,42.00
2022-12-20T11:27:15.133Z,38.50
2022-12-20T11:29:42.154Z,36.00
2022-12-20T11:32:28.986Z,33.00
2022-12-20T11:35:12.881Z,35.90
2022-12-20T11:38:38.131Z,38.60
2022-12-20T11:41:48.676Z,40.10
2022-12-20T11:44:27.926Z,36.20
2022-12-20T11:47:07.474Z,37.80
2022-12-20T11:50:02.332Z,39.40
2022-12-20T11:52:40.894Z,36.40
2022-12-20T11:55:20.684Z,37.00
2022-12-20T11:58:18.437Z,36.90
2022-12-20T12:01:03.753Z,35.80
2022-12-20T12:03:35.208Z,37.00
2022-12-20T12:06:25.644Z,35.80
2022-12-20T12:09:06.263Z,42.80
2022-12-20T12:15:00.295Z,41.80
2022-12-20T12:17:45.971Z,40.10
2022-12-20T12:20:39.835Z,41.30
2022-12-20T12:23:52.727Z,40.70
2022-12-20T12:26:31.476Z,37.10
2022-12-20T12:29:01.395Z,38.40
2022-12-20T12:31:36.701Z,41.20
2022-12-20T12:34:09.680Z,40.30
2022-12-20T12:37:05.627Z,40.20
2022-12-20T12:39:55.261Z,36.50
2022-12-20T12:42:27.832Z,40.90
2022-12-20T12:44:58.897Z,45.90
2022-12-20T12:48:00.852Z,40.40
2022-12-20T12:50:38.401Z,39.50
2022-12-20T12:53:12.119Z,36.30
2022-12-20T12:55:46.485Z,38.10
2022-12-20T12:58:22.084Z,40.70
2022-12-20T13:01:04.387Z,40.60
2022-12-20T13:03:45.495Z,39.60
2022-12-20T13:06:35.372Z,43.70
2022-12-20T13:09:02.739Z,42.60
2022-12-20T13:11:55.287Z,44.40
2022-12-20T13:14:29.012Z,47.00
2022-12-20T13:17:14.469Z,47.60
2022-12-20T13:19:57.046Z,47.50
2022-12-20T13:22:25.364Z,46.70
2022-12-20T13:24:56.927Z,44.20
2022-12-20T13:27:38.328Z,40.60
2022-12-20T13:30:04.867Z,40.10
2022-12-20T13:33:16.889Z,40.70
2022-12-20T13:35:54.468Z,40.10
2022-12-20T13:38:44.232Z,39.60
2022-12-20T13:41:35.022Z,37.10
2022-12-20T13:44:14.329Z,36.40
2022-12-20T13:46:40.860Z,37.60
2022-12-20T13:49:14.912Z,38.50
2022-12-20T13:51:41.744Z,38.50
2022-12-20T13:54:20.493Z,39.40
2022-12-20T13:56:52.058Z,38.00
2022-12-20T13:59:32.010Z,38.50
2022-12-20T14:02:03.530Z,37.30
2022-12-20T14:04:44.317Z,36.60
2022-12-20T14:07:17.193Z,36.10
2022-12-20T14:09:46.254Z,39.40
2022-12-20T14:12:24.792Z,36.70
2022-12-20T14:14:54.814Z,37.90
2022-12-20T14:17:31.883Z,38.10
2022-12-20T14:20:21.140Z,35.40
2022-12-20T14:23:05.501Z,37.10
2022-12-20T14:26:02.165Z,37.30
2022-12-20T14:28:38.318Z,38.20
2022-12-20T14:31:07.371Z,39.40
2022-12-20T14:33:37.752Z,44.00
2022-12-20T14:36:21.006Z,39.40
2022-12-20T14:38:50.772Z,35.30
2022-12-20T14:41:38.400Z,40.80
2022-12-20T14:44:21.425Z,44.80
2022-12-20T14:46:59.593Z,42.00
2022-12-20T14:49:30.939Z,41.90
2022-12-20T14:52:17.374Z,39.70
2022-12-20T14:55:10.233Z,36.50
2022-12-20T14:57:38.716Z,39.10
2022-12-20T15:00:22.193Z,43.20
2022-12-20T15:02:51.624Z,50.80
2022-12-20T15:05:38.089Z,45.20
2022-12-20T15:08:29.223Z,48.00
2022-12-20T15:10:59.353Z,48.20
2022-12-20T15:13:29.221Z,49.80
2022-12-20T15:15:58.722Z,49.80
2022-12-20T15:18:25.859Z,46.90
2022-12-20T15:21:02.717Z,46.00
2022-12-20T15:23:29.533Z,43.70
2022-12-20T15:25:56.236Z,40.20
2022-12-20T15:28:25.697Z,44.20
2022-12-20T15:30:53.318Z,44.40
2022-12-20T15:33:30.236Z,43.00
2022-12-20T15:35:56.906Z,41.00
2022-12-20T15:38:41.277Z,37.20
2022-12-20T15:41:24.172Z,36.90
2022-12-20T15:43:54.561Z,35.00
2022-12-20T15:46:21.485Z,35.40
2022-12-20T15:48:48.328Z,35.30
2022-12-20T15:51:27.061Z,33.20
2022-12-20T15:53:54.197Z,34.50
2022-12-20T15:56:23.130Z,35.30
2022-12-20T15:58:52.103Z,40.10
2022-12-20T16:01:41.129Z,37.50
2022-12-20T16:04:14.606Z,37.90
2022-12-20T16:06:42.888Z,39.60
2022-12-20T16:09:09.948Z,39.70
2022-12-20T16:11:36.592Z,38.40
2022-12-20T16:14:03.585Z,37.40
2022-12-20T16:16:33.219Z,35.90
2022-12-20T16:19:00.688Z,36.60
2022-12-20T16:21:32.009Z,37.60
2022-12-20T16:23:58.786Z,38.20
2022-12-20T16:26:26.075Z,35.40
2022-12-20T16:28:54.229Z,35.50
2022-12-20T16:31:38.047Z,37.20
2022-12-20T16:34:15.802Z,38.90
2022-12-20T16:36:42.898Z,37.80
2022-12-20T16:39:10.031Z,40.30
2022-12-20T16:41:40.383Z,39.10
2022-12-20T16:44:13.539Z,39.00
2022-12-20T16:46:40.311Z,36.40
2022-12-20T16:49:13.450Z,36.90
2022-12-20T16:51:47.434Z,37.50
2022-12-20T16:54:20.618Z,37.50
2022-12-20T16:56:51.469Z,39.50
2022-12-20T16:59:20.705Z,40.40
2022-12-20T17:01:51.874Z,41.60
2022-12-20T17:04:19.322Z,43.30
2022-12-20T17:06:46.215Z,44.00
2022-12-20T17:11:58.267Z,42.40
2022-12-20T17:14:24.904Z,41.50
2022-12-20T17:16:51.659Z,42.20
2022-12-20T17:19:18.857Z,40.10
2022-12-20T17:24:32.928Z,37.30
2022-12-20T17:26:59.648Z,37.30
2022-12-20T17:29:26.243Z,39.10
2022-12-20T17:31:53.042Z,41.10
2022-12-20T17:34:20.551Z,40.40
2022-12-20T17:36:48.952Z,40.50
2022-12-20T17:39:16.172Z,45.60
2022-12-20T17:41:43.875Z,45.10
2022-12-20T17:44:26.073Z,45.80
2022-12-20T17:46:54.373Z,45.90
2022-12-20T17:49:22.562Z,45.90
2022-12-20T17:51:50.952Z,47.50
2022-12-20T17:54:23.330Z,52.60
2022-12-20T17:56:50.308Z,48.70
2022-12-20T17:59:17.766Z,49.50
2022-12-20T18:01:45.641Z,47.10
2022-12-20T18:04:14.722Z,47.00
2022-12-20T18:06:43.150Z,46.00
2022-12-20T18:09:15.802Z,44.20
2022-12-20T18:11:42.907Z,44.20
2022-12-20T18:14:10.036Z,43.70
2022-12-20T18:16:40.327Z,45.30
2022-12-20T18:19:08.682Z,44.60
2022-12-20T18:21:35.331Z,43.50
2022-12-20T18:24:01.901Z,43.00
2022-12-20T18:26:30.578Z,44.40
2022-12-20T18:28:59.982Z,45.40
2022-12-20T18:31:29.671Z,41.20
2022-12-20T18:33:58.295Z,43.40
2022-12-20T18:36:30.986Z,43.80
2022-12-20T18:38:59.403Z,43.20
2022-12-20T18:41:29.150Z,42.50
2022-12-20T18:43:58.248Z,41.60
2022-12-20T18:46:26.060Z,44.70
2022-12-20T18:48:55.639Z,40.90
2022-12-20T18:51:26.192Z,42.80
2022-12-20T18:53:55.349Z,41.50
2022-12-20T18:56:24.764Z,42.50
2022-12-20T18:58:52.127Z,43.80
2022-12-20T19:01:23.804Z,48.60
2022-12-20T19:03:51.536Z,42.80
2022-12-20T19:06:19.416Z,41.00
2022-12-20T19:08:46.799Z,40.80
2022-12-20T19:11:16.461Z,39.30
2022-12-20T19:13:44.019Z,39.70
2022-12-20T19:16:15.032Z,38.10
2022-12-20T19:18:42.968Z,38.80
2022-12-20T19:21:10.983Z,38.50
2022-12-20T19:23:39.453Z,39.30
2022-12-20T19:26:11.207Z,38.80
2022-12-20T19:28:39.119Z,41.20
2022-12-20T19:31:25.758Z,42.50
2022-12-20T19:33:54.981Z,44.50
2022-12-20T19:36:27.830Z,43.90
2022-12-20T19:38:58.354Z,47.10
2022-12-20T19:41:28.486Z,49.30
2022-12-20T19:43:56.202Z,51.30
2022-12-20T19:46:28.755Z,54.80
2022-12-20T19:48:58.378Z,50.90
2022-12-20T19:51:26.512Z,49.70
2022-12-20T19:53:54.448Z,45.30
2022-12-20T19:56:27.384Z,43.30
2022-12-20T19:58:54.789Z,45.90
2022-12-20T20:01:25.067Z,46.50
2022-12-20T20:03:52.253Z,45.10
2022-12-20T20:06:19.868Z,44.10
2022-12-20T20:08:48.998Z,44.20
2022-12-20T20:11:17.307Z,43.20
2022-12-20T20:13:44.689Z,41.00
2022-12-20T20:16:14.303Z,41.50
2022-12-20T20:18:45.752Z,39.10
2022-12-20T20:21:17.303Z,40.30
2022-12-20T20:23:43.973Z,42.30
2022-12-20T20:26:15.592Z,42.70
2022-12-20T20:28:44.463Z,41.80
2022-12-20T20:31:14.459Z,43.30
2022-12-20T20:33:42.067Z,47.20
2022-12-20T20:36:13.579Z,49.90
2022-12-20T20:38:40.228Z,49.20
2022-12-20T20:41:06.941Z,50.10
2022-12-20T20:43:36.498Z,48.50
2022-12-20T20:46:07.251Z,47.40
2022-12-20T20:48:35.049Z,45.30
2022-12-20T20:51:01.745Z,46.80
2022-12-20T20:53:33.389Z,48.00
2022-12-20T20:56:05.290Z,49.70
2022-12-20T20:58:32.608Z,48.00
2022-12-20T21:01:01.319Z,45.00
2022-12-20T21:03:29.679Z,45.00
2022-12-20T21:08:44.057Z,43.70
2022-12-20T21:11:11.037Z,47.30
2022-12-20T21:13:37.800Z,49.10
2022-12-20T21:16:23.810Z,46.10
2022-12-20T21:18:51.909Z,41.80
2022-12-20T21:21:19.797Z,42.10
2022-12-20T21:23:47.552Z,43.40
2022-12-20T21:26:16.017Z,40.70
2022-12-20T21:28:45.986Z,39.20
2022-12-20T21:31:15.971Z,40.00
2022-12-20T21:33:45.142Z,40.30
2022-12-20T21:36:14.798Z,43.30
2022-12-20T21:38:41.961Z,44.10
2022-12-20T21:41:12.692Z,44.10
2022-12-20T21:43:39.554Z,43.70
2022-12-20T21:46:10.541Z,46.70
2022-12-20T21:48:42.486Z,45.20
2022-12-20T21:51:12.169Z,44.20
2022-12-20T21:53:46.431Z,44.20
2022-12-20T21:56:15.093Z,42.50
2022-12-20T21:58:42.328Z,39.10
2022-12-20T22:01:09.115Z,40.10
2022-12-20T22:03:37.243Z,39.60
2022-12-20T22:06:04.340Z,39.60
2022-12-20T22:08:31.708Z,39.60
2022-12-20T22:11:11.216Z,39.90
2022-12-20T22:13:41.838Z,44.50
2022-12-20T22:16:14.769Z,44.80
2022-12-20T22:18:42.530Z,45.00
2022-12-20T22:21:12.243Z,41.60
2022-12-20T22:23:39.900Z,42.10
2022-12-20T22:26:12.081Z,40.60
2022-12-20T22:28:39.681Z,40.90
2022-12-20T22:31:10.276Z,42.60
2022-12-20T22:33:37.265Z,47.90
2022-12-20T22:36:04.582Z,48.40
2022-12-20T22:38:31.507Z,47.20
2022-12-20T22:41:13.283Z,45.80
2022-12-20T22:43:41.483Z,44.80
2022-12-20T22:48:57.984Z,42.10
2022-12-20T22:51:26.442Z,40.60
2022-12-20T22:53:56.638Z,41.80
2022-12-20T22:56:23.470Z,41.90
2022-12-20T22:58:50.082Z,39.90
2022-12-20T23:01:19.212Z,41.10
2022-12-20T23:03:46.865Z,40.30
2022-12-20T23:06:16.566Z,40.70
2022-12-20T23:08:43.478Z,41.10
2022-12-20T23:11:40.432Z,42.60
2022-12-20T23:14:37.042Z,42.00
2022-12-20T23:17:05.308Z,43.90
2022-12-20T23:19:52.516Z,45.40
2022-12-20T23:22:39.894Z,45.60
2022-12-20T23:25:17.477Z,41.20
2022-12-20T23:27:46.080Z,39.20
2022-12-20T23:30:16.294Z,39.80
2022-12-20T23:32:45.910Z,39.80
2022-12-20T23:35:17.773Z,39.20
2022-12-20T23:37:46.180Z,38.20
2022-12-20T23:40:14.631Z,36.80
2022-12-20T23:42:41.532Z,38.20
2022-12-20T23:45:09.019Z,38.90
2022-12-20T23:47:35.944Z,41.00
2022-12-20T23:50:03.205Z,40.40
2022-12-20T23:52:29.891Z,39.80
2022-12-20T23:54:56.402Z,39.20
2022-12-20T23:57:22.890Z,39.70
2022-12-20T23:59:49.406Z,39.20
